Airfield :
LOGIN :

Register | Disclaimer

   EN    FR    IT 

 










Legend :    VFR   Marginal VFR   IFR   Intensive IFR   Very Intensive IFR
Visi :
Ceiling :
>= 8 km
>= 3000ft
5 to 8 km
1000 to 3000 ft
1500m to 5 km
500 to 1000 ft
800 to 1500m
200 to 500 ft
< 800m
< 200 ft
Symbols :   Thunderstorms  Fog  Heavy snow  Heavy precipitations  Wind > 20 kt
SIGMETs :     Misc.  Thunderstorms  Icing  Turbulence  Mountain Waves  Volcanic Ashes






- Airport Elevation : 433 ft


LFOC - Chateaudun

CURRENT METAR :
  • 021600Z AUTO 34010KT 310V020 9999 SCT047 10/M00 Q1016

EXPIRED METARs :
  • 021530Z AUTO 34009KT 300V010 9999 SCT048 11/M01 Q1016
  • 021500Z AUTO 35008KT CAVOK 10/M01 Q1016 NOSIG
  • 021430Z AUTO 33009KT 300V020 CAVOK 11/M01 Q1016 NOSIG
  • 021400Z AUTO 34009KT 310V020 CAVOK 11/M02 Q1016 NOSIG
  • 021330Z AUTO 33009KT 280V010 CAVOK 10/M02 Q1016 NOSIG

TAF TAF LFOC
Valid from the 02 at 15:00 until the 03 at 15:00 UTC


021400Z 0215/0315 35012KT 9999 SCT045
BECMG 0220/0222 29005KT
PROB30
TEMPO 0304/0309 4000 BR BKN003



MET'MAP, your aeronautical weather chart ! - Copyright ORBIFLY December 2007 - Disclaimer

ORBIFLY MET'MAP TEAM :

Programming & Development : Alexandra Zaïnal
Concept & original design : Baudouin d'Aumeries
Assistance for programming : Marc-Olivier Méhu
Technical & hardware support : Manuel Goepfert

Contact : metmap@orbifly.com




SOURCES & CREDITS :

   NOAA